^^
Station Historical Data
Daily Summary for July 14, 2021 Units:  English    Metric   Both
Daily Weekly Monthly Yearly
  High: Low: Average:
Temperature: 80.9 °F 68.5 °F 74.3 °F
Dew Point: 72.1 °F 65.8 °F 69.1 °F
Humidity: 92% 70% 84%
Wind Speed: 5mph 0mph 2.5mph
Wind Gust: 8mph - -
Wind- - SSW
Pressure: 30.07 in 29.95 in -
Precipitation: 0.00 in    
 
 
Tabular Data for July 14, 2021
Time Temperature Dew Point Pressure Wind Wind Speed Wind Gust Humidity Rainfall Rate (Hourly) solar
00:00 71.7 °F 68.6 °F 29.95 in SSE 3 mph 3 mph 90% 0.00 in 0 W/m2
00:05 71.6 °F 68.5 °F 29.96 in NW 3 mph 3 mph 90% 0.00 in 0 W/m2
00:10 71.7 °F 68.6 °F 29.95 in SSW 3 mph 4 mph 90% 0.00 in 0 W/m2
00:15 71.7 °F 68.6 °F 29.96 in South 3 mph 5 mph 90% 0.00 in 0 W/m2
00:20 71.7 °F 68.9 °F 29.96 in SSE 3 mph 3 mph 91% 0.00 in 0 W/m2
00:25 71.8 °F 69 °F 29.96 in WSW 3 mph 3 mph 91% 0.00 in 0 W/m2
00:30 71.8 °F 69 °F 29.96 in WSW 3 mph 6 mph 91% 0.00 in 0 W/m2
00:35 71.8 °F 69 °F 29.96 in SSW 3 mph 6 mph 91% 0.00 in 0 W/m2
00:40 71.8 °F 69 °F 29.96 in SSW 3 mph 4 mph 91% 0.00 in 0 W/m2
00:45 71.8 °F 69 °F 29.96 in SW 3 mph 4 mph 91% 0.00 in 0 W/m2
00:50 71.8 °F 69 °F 29.96 in West 3 mph 3 mph 91% 0.00 in 0 W/m2
00:55 71.7 °F 68.9 °F 29.96 in SW 3 mph 3 mph 91% 0.00 in 0 W/m2
01:00 71.7 °F 68.6 °F 29.96 in SSW 4 mph 4 mph 90% 0.00 in 0 W/m2
01:05 71.7 °F 68.6 °F 29.96 in SW 3 mph 6 mph 90% 0.00 in 0 W/m2
01:10 71.7 °F 68.6 °F 29.96 in SW 3 mph 5 mph 90% 0.00 in 0 W/m2
01:15 71.7 °F 68.6 °F 29.96 in SW 3 mph 5 mph 90% 0.00 in 0 W/m2
01:20 71.7 °F 68.9 °F 29.96 in SW 3 mph 5 mph 91% 0.00 in 0 W/m2
01:25 71.8 °F 69 °F 29.96 in SE 3 mph 5 mph 91% 0.00 in 0 W/m2
01:30 71.7 °F 68.9 °F 29.97 in SSW 3 mph 3 mph 91% 0.00 in 0 W/m2
01:35 71.8 °F 69 °F 29.97 in SW 3 mph 6 mph 91% 0.00 in 0 W/m2
01:40 71.8 °F 69 °F 29.96 in SW 3 mph 3 mph 91% 0.00 in 0 W/m2
01:45 71.7 °F 68.9 °F 29.96 in SW 3 mph 3 mph 91% 0.00 in 0 W/m2
01:50 71.7 °F 68.9 °F 29.97 in NW 3 mph 3 mph 91% 0.00 in 0 W/m2
01:55 71.5 °F 68.7 °F 29.97 in SW 3 mph 3 mph 91% 0.00 in 0 W/m2
02:00 71.5 °F 68.7 °F 29.96 in WSW 3 mph 4 mph 91% 0.00 in 0 W/m2
02:05 71.5 °F 68.7 °F 29.97 in WSW 3 mph 4 mph 91% 0.00 in 0 W/m2
02:10 71.4 °F 68.6 °F 29.97 in West 3 mph 4 mph 91% 0.00 in 0 W/m2
02:15 71.4 °F 68.6 °F 29.97 in SW 3 mph 4 mph 91% 0.00 in 0 W/m2
02:20 71.4 °F 68.6 °F 29.97 in West 3 mph 3 mph 91% 0.00 in 0 W/m2
02:25 71.3 °F 68.5 °F 29.97 in WSW 3 mph 3 mph 91% 0.00 in 0 W/m2
02:30 71.3 °F 68.5 °F 29.97 in NW 2 mph 2 mph 91% 0.00 in 0 W/m2
02:35 71.1 °F 68.3 °F 29.97 in West 3 mph 4 mph 91% 0.00 in 0 W/m2
02:40 71.1 °F 68.3 °F 29.97 in SW 2 mph 3 mph 91% 0.00 in 0 W/m2
02:45 71 °F 68.2 °F 29.98 in WNW 3 mph 3 mph 91% 0.00 in 0 W/m2
02:50 70.9 °F 68.1 °F 29.98 in SSW 3 mph 3 mph 91% 0.00 in 0 W/m2
02:55 70.9 °F 68.1 °F 29.98 in West 2 mph 3 mph 91% 0.00 in 0 W/m2
03:00 70.8 °F 68 °F 29.98 in WSW 2 mph 2 mph 91% 0.00 in 0 W/m2
03:05 70.7 °F 67.9 °F 29.98 in North 2 mph 2 mph 91% 0.00 in 0 W/m2
03:10 70.7 °F 67.9 °F 29.98 in WSW 2 mph 3 mph 91% 0.00 in 0 W/m2
03:15 70.6 °F 67.8 °F 29.98 in WNW 2 mph 3 mph 91% 0.00 in 0 W/m2
03:20 70.5 °F 67.7 °F 29.98 in NNW 2 mph 5 mph 91% 0.00 in 0 W/m2
03:25 70.5 °F 67.7 °F 29.98 in WNW 2 mph 5 mph 91% 0.00 in 0 W/m2
03:30 70.4 °F 67.6 °F 29.98 in North 2 mph 2 mph 91% 0.00 in 0 W/m2
03:35 70.4 °F 67.6 °F 29.99 in West 2 mph 2 mph 91% 0.00 in 0 W/m2
03:40 70.3 °F 67.5 °F 29.99 in SW 2 mph 3 mph 91% 0.00 in 0 W/m2
03:45 70.3 °F 67.5 °F 29.99 in WSW 3 mph 3 mph 91% 0.00 in 0 W/m2
03:50 70.2 °F 67.4 °F 29.99 in WSW 2 mph 2 mph 91% 0.00 in 0 W/m2
03:55 70.1 °F 67.3 °F 29.99 in NW 2 mph 2 mph 91% 0.00 in 0 W/m2
04:00 70.1 °F 67.3 °F 29.99 in WNW 2 mph 3 mph 91% 0.00 in 0 W/m2
04:05 70 °F 67.3 °F 30.00 in WSW 2 mph 3 mph 91% 0.00 in 0 W/m2
04:10 70 °F 67.3 °F 30.00 in WNW 2 mph 2 mph 91% 0.00 in 0 W/m2
04:15 69.9 °F 67.2 °F 30.00 in WNW 2 mph 4 mph 91% 0.00 in 0 W/m2
04:20 69.9 °F 67.2 °F 30.00 in NE 2 mph 2 mph 91% 0.00 in 0 W/m2
04:25 69.8 °F 67.1 °F 30.00 in NW 2 mph 2 mph 91% 0.00 in 0 W/m2
04:30 69.7 °F 67 °F 30.01 in WNW 3 mph 4 mph 91% 0.00 in 0 W/m2
04:35 69.7 °F 67.3 °F 30.01 in WNW 3 mph 4 mph 92% 0.00 in 0 W/m2
04:40 69.6 °F 66.9 °F 30.01 in WNW 3 mph 6 mph 91% 0.00 in 0 W/m2
04:45 69.5 °F 66.8 °F 30.01 in West 3 mph 6 mph 91% 0.00 in 0 W/m2
04:50 69.5 °F 66.8 °F 30.01 in WNW 2 mph 4 mph 91% 0.00 in 0 W/m2
04:55 69.4 °F 66.7 °F 30.01 in West 3 mph 4 mph 91% 0.00 in 0 W/m2
05:00 69.4 °F 66.7 °F 30.01 in SW 3 mph 3 mph 91% 0.00 in 0 W/m2
05:05 69.3 °F 66.6 °F 30.01 in WSW 2 mph 3 mph 91% 0.00 in 0 W/m2
05:10 69.3 °F 66.6 °F 30.01 in WSW 2 mph 3 mph 91% 0.00 in 0 W/m2
05:15 69.2 °F 66.5 °F 30.01 in SW 3 mph 3 mph 91% 0.00 in 0 W/m2
05:20 69.2 °F 66.5 °F 30.01 in WSW 3 mph 3 mph 91% 0.00 in 0 W/m2
05:25 69.2 °F 66.5 °F 30.02 in SW 2 mph 3 mph 91% 0.00 in 0 W/m2
05:30 69.1 °F 66.4 °F 30.01 in West 3 mph 6 mph 91% 0.00 in 0 W/m2
05:35 69 °F 66.3 °F 30.01 in WNW 3 mph 6 mph 91% 0.00 in 0 W/m2
05:40 68.9 °F 66.2 °F 30.01 in SSW 3 mph 3 mph 91% 0.00 in 0 W/m2
05:45 68.9 °F 66.2 °F 30.02 in West 2 mph 3 mph 91% 0.00 in 0 W/m2
05:50 68.8 °F 66.1 °F 30.02 in NNW 2 mph 4 mph 91% 0.00 in 0 W/m2
05:55 68.7 °F 66 °F 30.02 in WSW 3 mph 4 mph 91% 0.00 in 0 W/m2
06:00 68.7 °F 66 °F 30.02 in WSW 2 mph 2 mph 91% 0.00 in 0 W/m2
06:05 68.6 °F 65.9 °F 30.02 in WSW 2 mph 3 mph 91% 0.00 in 5 W/m2
06:10 68.6 °F 65.9 °F 30.02 in NW 3 mph 3 mph 91% 0.00 in 7 W/m2
06:15 68.6 °F 65.9 °F 30.02 in WSW 3 mph 3 mph 91% 0.00 in 9 W/m2
06:20 68.6 °F 65.9 °F 30.02 in North 2 mph 2 mph 91% 0.00 in 12 W/m2
06:25 68.6 °F 65.9 °F 30.02 in SW 2 mph 2 mph 91% 0.00 in 16 W/m2
06:30 68.5 °F 65.8 °F 30.02 in WSW 2 mph 2 mph 91% 0.00 in 18 W/m2
06:35 68.6 °F 65.9 °F 30.02 in WSW 2 mph 3 mph 91% 0.00 in 21 W/m2
06:40 68.6 °F 65.9 °F 30.02 in WSW 2 mph 2 mph 91% 0.00 in 23 W/m2
06:45 68.7 °F 66 °F 30.02 in SSW 2 mph 3 mph 91% 0.00 in 26 W/m2
06:50 68.7 °F 66 °F 30.02 in WSW 3 mph 3 mph 91% 0.00 in 28 W/m2
06:55 68.8 °F 66.1 °F 30.02 in SSW 3 mph 3 mph 91% 0.00 in 30 W/m2
07:00 68.9 °F 66.2 °F 30.02 in West 3 mph 3 mph 91% 0.00 in 33 W/m2
07:05 68.9 °F 65.8 °F 30.02 in WSW 3 mph 5 mph 90% 0.00 in 35 W/m2
07:10 69 °F 65.9 °F 30.02 in WSW 3 mph 3 mph 90% 0.00 in 40 W/m2
07:15 69 °F 65.9 °F 30.02 in SW 3 mph 3 mph 90% 0.00 in 42 W/m2
07:20 69.1 °F 66 °F 30.03 in West 3 mph 3 mph 90% 0.00 in 46 W/m2
07:25 69.2 °F 66.1 °F 30.02 in SSW 3 mph 3 mph 90% 0.00 in 47 W/m2
07:30 69.4 °F 66.3 °F 30.02 in South 3 mph 3 mph 90% 0.00 in 49 W/m2
07:35 69.5 °F 66.4 °F 30.02 in WSW 3 mph 4 mph 90% 0.00 in 51 W/m2
07:40 69.5 °F 66.4 °F 30.02 in SW 3 mph 3 mph 90% 0.00 in 54 W/m2
07:45 69.6 °F 66.5 °F 30.02 in SSW 3 mph 3 mph 90% 0.00 in 56 W/m2
07:50 69.7 °F 67 °F 30.02 in WSW 3 mph 4 mph 91% 0.00 in 62 W/m2
07:55 69.8 °F 67.1 °F 30.02 in South 3 mph 4 mph 91% 0.00 in 60 W/m2
08:00 69.9 °F 66.8 °F 30.02 in SW 3 mph 5 mph 90% 0.00 in 69 W/m2
08:05 70 °F 66.9 °F 30.02 in SSW 2 mph 5 mph 90% 0.00 in 116 W/m2
08:10 70 °F 66.9 °F 30.02 in East 2 mph 2 mph 90% 0.00 in 165 W/m2
08:15 70.1 °F 67 °F 30.03 in SW 2 mph 2 mph 90% 0.00 in 172 W/m2
08:20 70.1 °F 67 °F 30.03 in SW 2 mph 2 mph 90% 0.00 in 251 W/m2
08:25 70.1 °F 67 °F 30.03 in South 2 mph 2 mph 90% 0.00 in 262 W/m2
08:30 70.2 °F 67.1 °F 30.03 in SW 2 mph 3 mph 90% 0.00 in 279 W/m2
08:35 70.2 °F 67.1 °F 30.03 in SSW 2 mph 3 mph 90% 0.00 in 288 W/m2
08:40 70.2 °F 67.1 °F 30.04 in SW 2 mph 2 mph 90% 0.00 in 294 W/m2
08:45 70.2 °F 66.8 °F 30.04 in SSW 3 mph 6 mph 89% 0.00 in 311 W/m2
08:50 70.3 °F 67.2 °F 30.04 in SW 3 mph 4 mph 90% 0.00 in 330 W/m2
08:55 70.4 °F 67.3 °F 30.04 in SW 3 mph 4 mph 90% 0.00 in 345 W/m2
09:00 70.4 °F 67 °F 30.04 in SW 3 mph 3 mph 89% 0.00 in 364 W/m2
09:05 70.4 °F 67 °F 30.04 in SW 2 mph 3 mph 89% 0.00 in 366 W/m2
09:10 70.4 °F 67 °F 30.04 in South 2 mph 2 mph 89% 0.00 in 385 W/m2
09:15 70.5 °F 67.1 °F 30.05 in WSW 2 mph 2 mph 89% 0.00 in 392 W/m2
09:20 70.5 °F 67.1 °F 30.05 in WSW 2 mph 2 mph 89% 0.00 in 410 W/m2
09:25 70.5 °F 67.1 °F 30.05 in WSW 3 mph 4 mph 89% 0.00 in 418 W/m2
09:30 70.5 °F 67.1 °F 30.04 in WNW 3 mph 3 mph 89% 0.00 in 432 W/m2
09:35 70.6 °F 67.2 °F 30.05 in WSW 3 mph 4 mph 89% 0.00 in 445 W/m2
09:40 70.6 °F 67.2 °F 30.05 in SW 3 mph 8 mph 89% 0.00 in 459 W/m2
09:45 70.7 °F 67.3 °F 30.05 in West 3 mph 8 mph 89% 0.00 in 471 W/m2
09:50 70.8 °F 67.4 °F 30.05 in South 3 mph 3 mph 89% 0.00 in 487 W/m2
09:55 70.8 °F 67.4 °F 30.05 in WNW 3 mph 3 mph 89% 0.00 in 504 W/m2
10:00 70.9 °F 67.5 °F 30.05 in SW 3 mph 3 mph 89% 0.00 in 513 W/m2
10:05 70.9 °F 67.5 °F 30.05 in WSW 3 mph 3 mph 89% 0.00 in 520 W/m2
10:10 70.9 °F 67.2 °F 30.05 in West 4 mph 7 mph 88% 0.00 in 536 W/m2
10:15 71.1 °F 67.7 °F 30.05 in WNW 4 mph 7 mph 89% 0.00 in 555 W/m2
10:20 71.1 °F 67.4 °F 30.05 in SW 3 mph 3 mph 88% 0.00 in 566 W/m2
10:25 71.1 °F 67.4 °F 30.05 in West 4 mph 4 mph 88% 0.00 in 578 W/m2
10:30 71.1 °F 67.4 °F 30.04 in West 4 mph 4 mph 88% 0.00 in 587 W/m2
10:35 71.2 °F 67.5 °F 30.05 in SW 3 mph 4 mph 88% 0.00 in 601 W/m2
10:40 71.2 °F 67.5 °F 30.05 in WSW 3 mph 3 mph 88% 0.00 in 613 W/m2
10:45 71.3 °F 67.6 °F 30.05 in WSW 3 mph 3 mph 88% 0.00 in 621 W/m2
10:50 71.3 °F 67.6 °F 30.05 in SW 3 mph 3 mph 88% 0.00 in 631 W/m2
10:55 71.4 °F 67.7 °F 30.05 in SW 2 mph 3 mph 88% 0.00 in 645 W/m2
11:00 71.3 °F 67.2 °F 30.05 in SSE 2 mph 3 mph 87% 0.00 in 657 W/m2
11:05 71.3 °F 67.2 °F 30.04 in SSE 2 mph 3 mph 87% 0.00 in 673 W/m2
11:10 71.5 °F 67.8 °F 30.04 in SE 2 mph 3 mph 88% 0.00 in 682 W/m2
11:15 71.4 °F 67.3 °F 30.04 in East 2 mph 3 mph 87% 0.00 in 691 W/m2
11:20 71.5 °F 67.4 °F 30.04 in SSE 2 mph 2 mph 87% 0.00 in 701 W/m2
11:25 71.8 °F 68.1 °F 30.04 in SSE 2 mph 2 mph 88% 0.00 in 712 W/m2
11:30 71.9 °F 67.8 °F 30.04 in South 2 mph 3 mph 87% 0.00 in 717 W/m2
11:35 72 °F 67.9 °F 30.05 in SSE 2 mph 5 mph 87% 0.00 in 731 W/m2
11:40 72.3 °F 68.2 °F 30.05 in SSW 3 mph 3 mph 87% 0.00 in 742 W/m2
11:45 72.5 °F 68.1 °F 30.06 in SW 3 mph 3 mph 86% 0.00 in 744 W/m2
11:50 72.7 °F 68.3 °F 30.06 in SW 3 mph 3 mph 86% 0.00 in 751 W/m2
11:55 72.8 °F 68.7 °F 30.07 in SW 4 mph 7 mph 87% 0.00 in 754 W/m2
12:00 73 °F 68.9 °F 30.07 in SW 5 mph 6 mph 87% 0.00 in 756 W/m2
12:05 73.2 °F 69.4 °F 30.07 in WSW 4 mph 6 mph 88% 0.00 in 759 W/m2
12:10 73.4 °F 69.3 °F 30.07 in SW 3 mph 3 mph 87% 0.00 in 766 W/m2
12:15 73.6 °F 69.5 °F 30.07 in SSW 3 mph 6 mph 87% 0.00 in 777 W/m2
12:20 73.8 °F 69.7 °F 30.07 in SSW 3 mph 3 mph 87% 0.00 in 782 W/m2
12:25 74.1 °F 69.6 °F 30.06 in SE 3 mph 3 mph 86% 0.00 in 789 W/m2
12:30 74.4 °F 69.9 °F 30.06 in West 3 mph 3 mph 86% 0.00 in 795 W/m2
12:35 74.8 °F 70 °F 30.05 in SW 2 mph 3 mph 85% 0.00 in 802 W/m2
12:40 74.9 °F 69.7 °F 30.05 in SSE 2 mph 2 mph 84% 0.00 in 809 W/m2
12:45 75.2 °F 70 °F 30.05 in SSW 2 mph 2 mph 84% 0.00 in 814 W/m2
12:50 75.6 °F 70.4 °F 30.05 in South 2 mph 2 mph 84% 0.00 in 819 W/m2
12:55 76 °F 70.5 °F 30.05 in SE 2 mph 3 mph 83% 0.00 in 823 W/m2
13:00 76.1 °F 70.6 °F 30.05 in SW 2 mph 4 mph 83% 0.00 in 828 W/m2
13:05 76.3 °F 70.4 °F 30.05 in SW 2 mph 4 mph 82% 0.00 in 831 W/m2
13:10 76.5 °F 70.6 °F 30.05 in South 2 mph 3 mph 82% 0.00 in 831 W/m2
13:15 76.7 °F 70.8 °F 30.05 in SSW 2 mph 3 mph 82% 0.00 in 833 W/m2
13:20 76.9 °F 71 °F 30.05 in SW 2 mph 2 mph 82% 0.00 in 838 W/m2
13:25 77.3 °F 71 °F 30.05 in SW 3 mph 3 mph 81% 0.00 in 840 W/m2
13:30 77.2 °F 70.5 °F 30.05 in ESE 2 mph 2 mph 80% 0.00 in 844 W/m2
13:35 77.3 °F 70.6 °F 30.05 in SSW 2 mph 2 mph 80% 0.00 in 846 W/m2
13:40 77.4 °F 70.4 °F 30.04 in ESE 2 mph 2 mph 79% 0.00 in 844 W/m2
13:45 77.6 °F 70.2 °F 30.04 in SSE 2 mph 2 mph 78% 0.00 in 840 W/m2
13:50 77.8 °F 70.8 °F 30.04 in SE 2 mph 2 mph 79% 0.00 in 846 W/m2
13:55 77.9 °F 70.1 °F 30.03 in NNE 2 mph 2 mph 77% 0.00 in 846 W/m2
14:00 77.9 °F 70.5 °F 30.03 in ENE 2 mph 2 mph 78% 0.00 in 847 W/m2
14:05 78 °F 70.6 °F 30.03 in East 2 mph 3 mph 78% 0.00 in 851 W/m2
14:10 78.2 °F 70.4 °F 30.03 in East 1 mph 1 mph 77% 0.00 in 847 W/m2
14:15 78.3 °F 70.9 °F 30.03 in SSE 1 mph 2 mph 78% 0.00 in 842 W/m2
14:20 78.5 °F 70.3 °F 30.03 in ESE 2 mph 2 mph 76% 0.00 in 840 W/m2
14:25 78.6 °F 70.4 °F 30.03 in SE 2 mph 2 mph 76% 0.00 in 833 W/m2
14:30 79 °F 69.6 °F 30.03 in ESE 2 mph 2 mph 73% 0.00 in 828 W/m2
14:35 79.1 °F 69.3 °F 30.02 in SSE 2 mph 3 mph 72% 0.00 in 823 W/m2
14:40 79.2 °F 69.8 °F 30.02 in SSW 2 mph 3 mph 73% 0.00 in 816 W/m2
14:45 79.2 °F 69.4 °F 30.02 in SE 2 mph 3 mph 72% 0.00 in 819 W/m2
14:50 79.4 °F 71.6 °F 30.01 in ENE 2 mph 2 mph 77% 0.00 in 810 W/m2
14:55 79.4 °F 70.8 °F 30.01 in NW 2 mph 2 mph 75% 0.00 in 805 W/m2
15:00 79.5 °F 70.5 °F 30.01 in NNE 1 mph 2 mph 74% 0.00 in 807 W/m2
15:05 79.6 °F 71 °F 30.00 in NE 1 mph 2 mph 75% 0.00 in 802 W/m2
15:10 79.6 °F 71 °F 30.00 in NNW 1 mph 2 mph 75% 0.00 in 795 W/m2
15:15 79.5 °F 71.7 °F 30.01 in NNW 1 mph 2 mph 77% 0.00 in 791 W/m2
15:20 79.2 °F 71.4 °F 30.01 in North 1 mph 1 mph 77% 0.00 in 782 W/m2
15:25 79.3 °F 71.5 °F 30.01 in SE 1 mph 1 mph 77% 0.00 in 772 W/m2
15:30 79.1 °F 71.3 °F 30.01 in North 1 mph 1 mph 77% 0.00 in 770 W/m2
15:35 79.2 °F 70.6 °F 30.01 in WNW 1 mph 1 mph 75% 0.00 in 761 W/m2
15:40 79.5 °F 70.9 °F 30.01 in SW 1 mph 3 mph 75% 0.00 in 758 W/m2
15:45 79.8 °F 69.6 °F 30.01 in South 2 mph 4 mph 71% 0.00 in 754 W/m2
15:50 80 °F 70.2 °F 30.01 in SSW 3 mph 4 mph 72% 0.00 in 745 W/m2
15:55 80 °F 69.7 °F 30.01 in SSW 3 mph 4 mph 71% 0.00 in 738 W/m2
16:00 80.2 °F 69.9 °F 30.01 in South 3 mph 3 mph 71% 0.00 in 737 W/m2
16:05 80.2 °F 69.9 °F 30.01 in SW 3 mph 3 mph 71% 0.00 in 682 W/m2
16:10 80.4 °F 70.5 °F 30.01 in SSW 3 mph 3 mph 72% 0.00 in 696 W/m2
16:15 80.5 °F 70.6 °F 30.01 in South 4 mph 4 mph 72% 0.00 in 693 W/m2
16:20 80.6 °F 71.1 °F 30.01 in SSW 4 mph 5 mph 73% 0.00 in 679 W/m2
16:25 80.6 °F 70.7 °F 30.01 in SW 4 mph 5 mph 72% 0.00 in 668 W/m2
16:30 80.6 °F 71.5 °F 30.01 in SW 3 mph 5 mph 74% 0.00 in 656 W/m2
16:35 80.6 °F 71.1 °F 30.01 in SSE 3 mph 5 mph 73% 0.00 in 649 W/m2
16:40 80.5 °F 71 °F 30.01 in South 3 mph 3 mph 73% 0.00 in 622 W/m2
16:45 80.5 °F 70.6 °F 30.01 in SSE 2 mph 3 mph 72% 0.00 in 629 W/m2
16:50 80.7 °F 70.8 °F 30.01 in ESE 2 mph 2 mph 72% 0.00 in 622 W/m2
16:55 80.8 °F 70.9 °F 30.01 in SSW 2 mph 2 mph 72% 0.00 in 617 W/m2
17:00 80.9 °F 71 °F 30.01 in SSW 1 mph 2 mph 72% 0.00 in 605 W/m2
17:05 80.9 °F 70.6 °F 30.01 in South 1 mph 3 mph 71% 0.00 in 589 W/m2
17:10 80.8 °F 70.1 °F 30.01 in SE 1 mph 1 mph 70% 0.00 in 506 W/m2
17:15 80.7 °F 70 °F 30.00 in NE 2 mph 2 mph 70% 0.00 in 431 W/m2
17:20 80.6 °F 69.9 °F 30.00 in ESE 1 mph 1 mph 70% 0.00 in 454 W/m2
17:25 80.5 °F 70.2 °F 30.00 in SE 2 mph 2 mph 71% 0.00 in 441 W/m2
17:30 80.4 °F 70.1 °F 30.00 in SW 2 mph 2 mph 71% 0.00 in 381 W/m2
17:35 80.3 °F 70.4 °F 30.00 in NE 2 mph 2 mph 72% 0.00 in 364 W/m2
17:40 80.2 °F 70.4 °F 30.00 in SW 2 mph 3 mph 72% 0.00 in 364 W/m2
17:45 80.2 °F 70.8 °F 30.00 in SSW 3 mph 3 mph 73% 0.00 in 334 W/m2
17:50 80.1 °F 70.7 °F 30.00 in WSW 3 mph 4 mph 73% 0.00 in 341 W/m2
17:55 80.1 °F 70.7 °F 30.00 in SW 3 mph 4 mph 73% 0.00 in 336 W/m2
18:00 80.1 °F 70.7 °F 30.00 in SW 3 mph 3 mph 73% 0.00 in 316 W/m2
18:05 80.1 °F 70.7 °F 30.00 in NE 3 mph 3 mph 73% 0.00 in 295 W/m2
18:10 80.1 °F 70.7 °F 29.99 in SSE 3 mph 4 mph 73% 0.00 in 285 W/m2
18:15 80 °F 71 °F 29.99 in SSW 3 mph 4 mph 74% 0.00 in 288 W/m2
18:20 80 °F 70.6 °F 29.99 in SSE 2 mph 2 mph 73% 0.00 in 241 W/m2
18:25 79.9 °F 70.5 °F 29.99 in SE 2 mph 2 mph 73% 0.00 in 269 W/m2
18:30 79.9 °F 70.9 °F 29.99 in SW 2 mph 2 mph 74% 0.00 in 271 W/m2
18:35 80 °F 71 °F 29.99 in South 2 mph 3 mph 74% 0.00 in 236 W/m2
18:40 79.8 °F 70.8 °F 29.99 in SSE 3 mph 3 mph 74% 0.00 in 236 W/m2
18:45 79.8 °F 70.8 °F 29.99 in SSW 3 mph 3 mph 74% 0.00 in 195 W/m2
18:50 79.7 °F 70.7 °F 29.99 in WSW 2 mph 6 mph 74% 0.00 in 137 W/m2
18:55 79.6 °F 71 °F 29.99 in SSW 2 mph 6 mph 75% 0.00 in 111 W/m2
19:00 79.5 °F 70.9 °F 29.99 in SW 3 mph 3 mph 75% 0.00 in 95 W/m2
19:05 79.5 °F 71.3 °F 29.99 in South 3 mph 3 mph 76% 0.00 in 93 W/m2
19:10 79.3 °F 71.5 °F 29.99 in SW 3 mph 3 mph 77% 0.00 in 105 W/m2
19:15 79.2 °F 71.4 °F 29.99 in West 3 mph 3 mph 77% 0.00 in 105 W/m2
19:20 79.1 °F 71.3 °F 29.99 in South 2 mph 4 mph 77% 0.00 in 139 W/m2
19:25 79.1 °F 71.3 °F 30.00 in SSW 3 mph 4 mph 77% 0.00 in 137 W/m2
19:30 79 °F 71.6 °F 30.00 in SW 4 mph 4 mph 78% 0.00 in 120 W/m2
19:35 78.9 °F 71.5 °F 30.00 in SW 3 mph 4 mph 78% 0.00 in 116 W/m2
19:40 78.7 °F 71.6 °F 29.99 in South 3 mph 3 mph 79% 0.00 in 109 W/m2
19:45 78.7 °F 71.6 °F 29.99 in West 2 mph 3 mph 79% 0.00 in 98 W/m2
19:50 78.6 °F 71.5 °F 29.99 in SSW 3 mph 3 mph 79% 0.00 in 79 W/m2
19:55 78.5 °F 71.8 °F 29.99 in SSW 3 mph 3 mph 80% 0.00 in 69 W/m2
20:00 78.5 °F 71.8 °F 30.00 in SW 3 mph 4 mph 80% 0.00 in 60 W/m2
20:05 78.4 °F 72.1 °F 30.00 in SW 4 mph 4 mph 81% 0.00 in 54 W/m2
20:10 78.2 °F 71.9 °F 30.00 in SW 4 mph 5 mph 81% 0.00 in 54 W/m2
20:15 78.1 °F 71.8 °F 30.00 in SSW 4 mph 5 mph 81% 0.00 in 56 W/m2
20:20 78 °F 71.7 °F 29.99 in South 3 mph 3 mph 81% 0.00 in 53 W/m2
20:25 77.9 °F 72 °F 29.99 in South 3 mph 3 mph 82% 0.00 in 49 W/m2
20:30 77.7 °F 71.8 °F 29.99 in SW 3 mph 4 mph 82% 0.00 in 51 W/m2
20:35 77.6 °F 71.7 °F 29.99 in WNW 3 mph 4 mph 82% 0.00 in 53 W/m2
20:40 77.5 °F 71.6 °F 29.99 in South 3 mph 3 mph 82% 0.00 in 46 W/m2
20:45 77.5 °F 71.9 °F 29.99 in SSW 3 mph 3 mph 83% 0.00 in 35 W/m2
20:50 77.5 °F 71.9 °F 29.99 in South 3 mph 3 mph 83% 0.00 in 28 W/m2
20:55 77.4 °F 71.8 °F 29.99 in SSW 3 mph 3 mph 83% 0.00 in 21 W/m2
21:00 77.3 °F 71.7 °F 29.98 in South 3 mph 4 mph 83% 0.00 in 16 W/m2
21:05 77.2 °F 71.6 °F 29.98 in SW 3 mph 4 mph 83% 0.00 in 11 W/m2
21:10 77.2 °F 71.6 °F 29.98 in NW 3 mph 3 mph 83% 0.00 in 7 W/m2
21:15 77.1 °F 71.9 °F 29.98 in SSW 3 mph 5 mph 84% 0.00 in 5 W/m2
21:20 76.9 °F 71.3 °F 29.98 in West 3 mph 3 mph 83% 0.00 in 0 W/m2
21:25 76.9 °F 71.3 °F 29.98 in South 3 mph 3 mph 83% 0.00 in 0 W/m2
21:30 76.8 °F 71.2 °F 29.98 in WSW 3 mph 3 mph 83% 0.00 in 0 W/m2
21:35 76.7 °F 71.1 °F 29.98 in SW 3 mph 4 mph 83% 0.00 in 0 W/m2
21:40 76.7 °F 71.5 °F 29.98 in SSE 3 mph 3 mph 84% 0.00 in 0 W/m2
21:45 76.6 °F 71.4 °F 29.98 in NW 3 mph 4 mph 84% 0.00 in 0 W/m2
21:50 76.5 °F 70.9 °F 29.98 in SSW 3 mph 4 mph 83% 0.00 in 0 W/m2
21:55 76.5 °F 70.9 °F 29.98 in SSW 3 mph 4 mph 83% 0.00 in 0 W/m2
22:00 76.5 °F 70.9 °F 29.98 in SSW 3 mph 3 mph 83% 0.00 in 0 W/m2
22:05 76.5 °F 71.3 °F 29.97 in WSW 3 mph 3 mph 84% 0.00 in 0 W/m2
22:10 76.5 °F 71.3 °F 29.97 in SW 2 mph 3 mph 84% 0.00 in 0 W/m2
22:15 76.5 °F 71.3 °F 29.97 in SE 2 mph 3 mph 84% 0.00 in 0 W/m2
22:20 76.4 °F 70.9 °F 29.97 in East 2 mph 2 mph 83% 0.00 in 0 W/m2
22:25 76.4 °F 70.9 °F 29.96 in West 2 mph 2 mph 83% 0.00 in 0 W/m2
22:30 76.4 °F 70.5 °F 29.96 in SE 1 mph 1 mph 82% 0.00 in 0 W/m2
22:35 76.4 °F 70.1 °F 29.97 in East 1 mph 1 mph 81% 0.00 in 0 W/m2
22:40 76.5 °F 70.2 °F 29.96 in NNE 1 mph 1 mph 81% 0.00 in 0 W/m2
22:45 76.6 °F 70.7 °F 29.97 in Calm   1 mph 82% 0.00 in 0 W/m2
22:50 76.6 °F 70.3 °F 29.97 in Calm   1 mph 81% 0.00 in 0 W/m2
22:55 76.6 °F 70.7 °F 29.97 in NE 1 mph 1 mph 82% 0.00 in 0 W/m2
23:00 76.6 °F 71 °F 29.97 in Calm     83% 0.00 in 0 W/m2
23:05 76.5 °F 71.3 °F 29.97 in Calm     84% 0.00 in 0 W/m2
23:10 76.4 °F 71.2 °F 29.97 in Calm   1 mph 84% 0.00 in 0 W/m2
23:15 76.3 °F 71.5 °F 29.97 in ENE 1 mph 1 mph 85% 0.00 in 0 W/m2
23:20 76.1 °F 71.6 °F 29.97 in NE 1 mph 1 mph 86% 0.00 in 0 W/m2
23:25 76 °F 71.2 °F 29.96 in ENE 1 mph 1 mph 85% 0.00 in 0 W/m2
23:30 75.9 °F 71.1 °F 29.96 in East 1 mph 1 mph 85% 0.00 in 0 W/m2
23:35 75.8 °F 71 °F 29.96 in Calm   1 mph 85% 0.00 in 0 W/m2
23:40 75.8 °F 71.3 °F 29.96 in Calm     86% 0.00 in 0 W/m2
Sand Point, Michigan, USA
Compliments of Weather Underground - 2 mb